Aviation Digital Data Service (ADDS)

Output produced by METARs form (2025 UTC 16 December 2017)
found at http://www.aviationweather.gov/adds/metars/
 
KSTF 162035Z AUTO 14005KT 10SM CLR 11/00 A3024 RMK AO2
KSTF 162015Z AUTO 17003KT 10SM CLR 11/00 A3025 RMK AO2
KSTF 161955Z AUTO 16004KT 10SM CLR 10/00 A3026 RMK AO2
KSTF 161935Z AUTO 14005KT 10SM CLR 10/00 A3026 RMK AO2
KSTF 161915Z AUTO 15006KT 10SM CLR 10/00 A3026 RMK AO2
KSTF 161855Z AUTO 17004KT 10SM CLR 10/00 A3027 RMK AO2
KSTF 161835Z AUTO 14005KT 10SM CLR 10/00 A3027 RMK AO2
KSTF 161815Z AUTO 16004KT 10SM CLR 10/00 A3029 RMK AO2
KSTF 161755Z AUTO 13004KT 10SM CLR 10/00 A3031 RMK AO2
KSTF 161735Z AUTO 16006KT 10SM CLR 08/00 A3032 RMK AO2
KSTF 161715Z AUTO 17005KT 10SM CLR 08/M01 A3033 RMK AO2
KSTF 161655Z AUTO 17005KT 10SM CLR 07/M01 A3034 RMK AO2
KSTF 161635Z AUTO 18005KT 10SM CLR 06/00 A3034 RMK AO2
KSTF 161615Z AUTO 18006KT 10SM CLR 05/00 A3034 RMK AO2
KSTF 161555Z AUTO 16003KT 10SM CLR 03/00 A3034 RMK AO2
KSTF 161535Z AUTO 17004KT 10SM CLR 02/00 A3033 RMK AO2
KSTF 161515Z AUTO 16003KT 10SM CLR 00/00 A3033 RMK AO2
KSTF 161455Z AUTO 00000KT 10SM CLR M01/M01 A3033 RMK AO2
KSTF 161435Z AUTO 00000KT 10SM CLR M02/M02 A3033 RMK AO2
KSTF 161415Z AUTO 20003KT 10SM CLR M02/M03 A3033 RMK AO2
KSTF 161355Z AUTO 19003KT 10SM CLR M04/M05 A3031 RMK AO2
KSTF 161335Z AUTO 00000KT 10SM CLR M05/M06 A3031 RMK AO2
KSTF 161315Z AUTO 00000KT 10SM CLR M05/M06 A3030 RMK AO2
KSTF 161255Z AUTO 00000KT 10SM CLR M06/M06 A3030 RMK AO2
KSTF 161235Z AUTO 00000KT 10SM CLR M06/M06 A3030 RMK AO2
KSTF 161215Z AUTO 00000KT 10SM CLR M05/M06 A3029 RMK AO2
KSTF 161155Z AUTO 00000KT 10SM CLR M06/M06 A3029 RMK AO2
KSTF 161135Z AUTO 00000KT 10SM CLR M05/M05 A3028 RMK AO2
KSTF 161115Z AUTO 00000KT 10SM CLR M05/M05 A3028 RMK AO2
KSTF 161055Z AUTO 00000KT 10SM CLR M05/M05 A3028 RMK AO2
KSTF 161035Z AUTO 00000KT 10SM CLR M05/M05 A3028 RMK AO2
KSTF 161015Z AUTO 00000KT 10SM CLR M04/M05 A3028 RMK AO2
KSTF 160955Z AUTO 00000KT 10SM CLR M04/M05 A3028 RMK AO2
KSTF 160935Z AUTO 00000KT 10SM CLR M04/M05 A3028 RMK AO2
KSTF 160915Z AUTO 00000KT 10SM CLR M03/M05 A3029 RMK AO2
KSTF 160855Z AUTO 00000KT 10SM CLR M03/M04 A3028 RMK AO2
KSTF 160815Z AUTO 00000KT 10SM CLR M03/M04 A3028 RMK AO2
KSTF 160755Z AUTO 18003KT 10SM CLR M03/M04 A3027 RMK AO2
KSTF 160735Z AUTO 00000KT 10SM CLR M03/M03 A3027 RMK AO2
KSTF 160715Z AUTO 00000KT 10SM CLR M03/M03 A3027 RMK AO2
KSTF 160655Z AUTO 00000KT 10SM CLR M03/M03 A3028 RMK AO2
KSTF 160635Z AUTO 19003KT 10SM CLR M03/M04 A3028 RMK AO2
KSTF 160615Z AUTO 19004KT 10SM CLR M03/M04 A3029 RMK AO2
KSTF 160555Z AUTO 00000KT 10SM CLR M04/M05 A3028 RMK AO2
KSTF 160535Z AUTO 00000KT 10SM CLR M03/M03 A3029 RMK AO2
KSTF 160515Z AUTO 00000KT 10SM CLR M03/M03 A3029 RMK AO2
KSTF 160455Z AUTO 00000KT 10SM CLR M02/M03 A3029 RMK AO2
KSTF 160435Z AUTO 00000KT 10SM CLR M02/M03 A3029 RMK AO2
KSTF 160415Z AUTO 00000KT 10SM CLR M02/M03 A3028 RMK AO2
KSTF 160355Z AUTO 00000KT 10SM CLR M02/M03 A3028 RMK AO2
KSTF 160335Z AUTO 18003KT 10SM CLR M03/M03 A3027 RMK AO2
KSTF 160315Z AUTO 19003KT 10SM CLR M02/M03 A3027 RMK AO2
KSTF 160255Z AUTO 00000KT 10SM CLR M02/M03 A3026 RMK AO2
KSTF 160235Z AUTO 00000KT 10SM CLR M01/M03 A3026 RMK AO2
KSTF 160215Z AUTO 00000KT 10SM CLR M01/M03 A3026 RMK AO2
KSTF 160155Z AUTO 00000KT 10SM CLR M02/M03 A3026 RMK AO2
KSTF 160135Z AUTO 00000KT 10SM CLR 00/M03 A3026 RMK AO2
KSTF 160115Z AUTO 00000KT 10SM CLR 00/M02 A3025 RMK AO2
KSTF 160055Z AUTO 00000KT 10SM CLR 00/M02 A3025 RMK AO2
KSTF 160035Z AUTO 00000KT 10SM CLR 00/M02 A3025 RMK AO2
KSTF 160015Z AUTO 00000KT 10SM CLR 01/M02 A3025 RMK AO2
KSTF 152355Z AUTO 00000KT 10SM CLR 01/M02 A3024 RMK AO2
KSTF 152335Z AUTO 00000KT 10SM CLR 02/M03 A3023 RMK AO2
KSTF 152315Z AUTO 00000KT 10SM CLR 03/M03 A3023 RMK AO2
KSTF 152255Z AUTO 00000KT 10SM CLR 03/M03 A3023 RMK AO2
KSTF 152235Z AUTO 00000KT 10SM CLR 05/M03 A3024 RMK AO2
KSTF 152215Z AUTO 00000KT 10SM CLR 05/M03 A3023 RMK AO2
KSTF 152155Z AUTO 00000KT 10SM CLR 05/M03 A3022 RMK AO2
KSTF 152135Z AUTO 28003KT 10SM CLR 05/M03 A3023 RMK AO2
KSTF 152115Z AUTO 00000KT 10SM CLR 05/M03 A3023 RMK AO2
KSTF 152055Z AUTO 00000KT 10SM CLR 05/M03 A3023 RMK AO2
KSTF 152035Z AUTO 00000KT 10SM CLR 05/M03 A3023 RMK AO2
KSTF 152015Z AUTO 31003KT 10SM CLR 05/M03 A3022 RMK AO2
KSTF 151955Z AUTO 35004KT 10SM CLR 05/M03 A3024 RMK AO2
KSTF 151935Z AUTO 02006KT 10SM CLR 05/M03 A3024 RMK AO2
KSTF 151915Z AUTO 31004KT 10SM CLR 04/M03 A3025 RMK AO2
KSTF 151855Z AUTO 36004KT 10SM CLR 05/M03 A3025 RMK AO2
KSTF 151835Z AUTO 35004KT 10SM CLR 04/M03 A3025 RMK AO2
KSTF 151815Z AUTO 01007KT 10SM CLR 04/M03 A3026 RMK AO2
KSTF 151755Z AUTO 35004KT 10SM CLR 04/M02 A3028 RMK AO2
KSTF 151735Z AUTO 36005KT 10SM CLR 03/M02 A3028 RMK AO2
KSTF 151715Z AUTO 34005KT 10SM CLR 03/M02 A3028 RMK AO2
KSTF 151655Z AUTO 31004KT 10SM CLR 03/M02 A3029 RMK AO2
KSTF 151635Z AUTO 34003KT 10SM CLR 03/M02 A3030 RMK AO2
KSTF 151615Z AUTO 35003KT 10SM CLR 03/M02 A3027 RMK AO2
KSTF 151555Z AUTO 35004KT 10SM CLR 02/M01 A3027 RMK AO2
KSTF 151535Z AUTO 35005KT 10SM CLR 02/M01 A3025 RMK AO2
KSTF 151515Z AUTO 33003KT 10SM CLR 01/M01 A3024 RMK AO2
KSTF 151455Z AUTO 33003KT 10SM CLR 01/M01 A3023 RMK AO2
KSTF 151435Z AUTO 00000KT 10SM CLR 00/M02 A3022 RMK AO2
KSTF 151415Z AUTO 00000KT 10SM CLR 00/M02 A3022 RMK AO2
KSTF 151355Z AUTO 00000KT 10SM CLR 00/M02 A3022 RMK AO2
KSTF 151335Z AUTO 33003KT 10SM CLR 00/M02 A3020 RMK AO2
KSTF 151315Z AUTO 33004KT 10SM CLR 00/M02 A3020 RMK AO2
KSTF 151255Z AUTO 32003KT 10SM CLR 00/M02 A3019 RMK AO2
KSTF 151235Z AUTO 00000KT 10SM CLR 00/M02 A3017 RMK AO2
KSTF 151215Z AUTO 33003KT 10SM CLR 00/M01 A3016 RMK AO2
KSTF 151155Z AUTO 00000KT 10SM CLR 00/M02 A3015 RMK AO2
KSTF 151135Z AUTO 00000KT 10SM CLR M01/M02 A3015 RMK AO2
KSTF 151115Z AUTO 00000KT 10SM CLR M01/M02 A3015 RMK AO2
KSTF 151055Z AUTO 00000KT 10SM CLR M01/M02 A3015 RMK AO2
KSTF 151035Z AUTO 00000KT 10SM CLR M01/M02 A3015 RMK AO2
KSTF 151015Z AUTO 00000KT 10SM CLR 00/M02 A3015 RMK AO2
KSTF 150955Z AUTO 00000KT 10SM CLR 00/M02 A3015 RMK AO2
KSTF 150935Z AUTO 00000KT 10SM CLR 00/M02 A3015 RMK AO2
KSTF 150915Z AUTO 00000KT 10SM CLR 00/M02 A3014 RMK AO2
KSTF 150855Z AUTO 00000KT 10SM CLR 01/M02 A3014 RMK AO2
KSTF 150835Z AUTO 34003KT 10SM CLR 01/M02 A3013 RMK AO2
KSTF 150815Z AUTO 00000KT 10SM CLR 01/M02 A3013 RMK AO2
KSTF 150755Z AUTO 35003KT 10SM CLR 02/M01 A3012 RMK AO2
KSTF 150735Z AUTO 01003KT 10SM CLR 02/M01 A3012 RMK AO2
KSTF 150715Z AUTO 00000KT 10SM CLR 02/M01 A3011 RMK AO2
KSTF 150655Z AUTO 00000KT 10SM CLR 03/M01 A3011 RMK AO2
KSTF 150635Z AUTO 36003KT 10SM CLR 03/M01 A3011 RMK AO2
KSTF 150615Z AUTO 35003KT 10SM CLR 04/M01 A3011 RMK AO2
KSTF 150555Z AUTO 36004KT 10SM CLR 05/M01 A3011 RMK AO2
KSTF 150535Z AUTO 35005KT 10SM CLR 05/00 A3010 RMK AO2
KSTF 150515Z AUTO 36004KT 10SM CLR 06/00 A3010 RMK AO2
KSTF 150455Z AUTO 36005KT 10SM CLR 06/00 A3010 RMK AO2
KSTF 150435Z AUTO 36006KT 10SM CLR 06/00 A3010 RMK AO2
KSTF 150415Z AUTO 35007KT 10SM CLR 07/00 A3010 RMK AO2
KSTF 150355Z AUTO 36009KT 10SM CLR 07/00 A3008 RMK AO2
KSTF 150335Z AUTO 36005KT 10SM CLR 07/00 A3008 RMK AO2
KSTF 150315Z AUTO 35004KT 10SM CLR 08/00 A3007 RMK AO2
KSTF 150255Z AUTO 34003KT 10SM CLR 08/00 A3007 RMK AO2
KSTF 150235Z AUTO 36004KT 10SM CLR 08/00 A3006 RMK AO2
KSTF 150215Z AUTO 01003KT 10SM CLR 08/00 A3006 RMK AO2
KSTF 150155Z AUTO 36003KT 10SM CLR 09/00 A3005 RMK AO2
KSTF 150135Z AUTO 00000KT 10SM CLR 09/01 A3004 RMK AO2
KSTF 150115Z AUTO 01004KT 10SM CLR 10/01 A3003 RMK AO2
KSTF 150055Z AUTO 01004KT 10SM CLR 10/01 A3002 RMK AO2
KSTF 150035Z AUTO 01004KT 10SM CLR 11/01 A3002 RMK AO2
KSTF 150015Z AUTO 02004KT 10SM CLR 11/01 A3001 RMK AO2
KSTF 142355Z AUTO 00000KT 10SM CLR 11/01 A3000 RMK AO2
KSTF 142335Z AUTO 35003KT 10SM CLR 12/01 A3000 RMK AO2
KSTF 142315Z AUTO 34003KT 10SM CLR 12/01 A2998 RMK AO2
KSTF 142255Z AUTO 00000KT 10SM CLR 13/01 A2998 RMK AO2
KSTF 142235Z AUTO 35003KT 10SM CLR 14/01 A2996 RMK AO2
KSTF 142215Z AUTO 00000KT 10SM CLR 15/01 A2997 RMK AO2
KSTF 142155Z AUTO 00000KT 10SM CLR 15/00 A2996 RMK AO2
KSTF 142135Z AUTO 00000KT 10SM CLR 16/00 A2996 RMK AO2
KSTF 142115Z AUTO 36003KT 10SM CLR 15/00 A2995 RMK AO2
KSTF 142055Z AUTO 00000KT 10SM CLR 16/00 A2996 RMK AO2
KSTF 142035Z AUTO 00000KT 10SM CLR 16/00 A2996 RMK AO2
KSTF 142015Z AUTO 28003KT 10SM CLR 16/00 A2997 RMK AO2
KSTF 141955Z AUTO 32003KT 10SM CLR 15/00 A2997 RMK AO2
KSTF 141935Z AUTO 00000KT 10SM CLR 15/00 A2996 RMK AO2
KSTF 141915Z AUTO 11003KT 10SM CLR 15/00 A2997 RMK AO2
KSTF 141855Z AUTO 06003KT 10SM CLR 13/00 A2997 RMK AO2
KSTF 141835Z AUTO 04004KT 10SM CLR 13/00 A2998 RMK AO2
KSTF 141815Z AUTO 04003KT 10SM CLR 13/00 A2999 RMK AO2
KSTF 141755Z AUTO 07003KT 10SM CLR 12/00 A3000 RMK AO2
KSTF 141735Z AUTO 03004KT 10SM CLR 12/01 A3000 RMK AO2
KSTF 141715Z AUTO 02004KT 10SM CLR 11/00 A3001 RMK AO2
KSTF 141655Z AUTO 36004KT 10SM CLR 11/00 A3001 RMK AO2
KSTF 141635Z AUTO 32004KT 10SM CLR 10/00 A3001 RMK AO2
KSTF 141615Z AUTO 35003KT 10SM CLR 10/01 A3001 RMK AO2
KSTF 141555Z AUTO 34003KT 10SM CLR 08/01 A3001 RMK AO2
KSTF 141535Z AUTO 00000KT 10SM CLR 08/01 A3000 RMK AO2
KSTF 141515Z AUTO 00000KT 10SM CLR 06/01 A3000 RMK AO2
KSTF 141455Z AUTO 00000KT 10SM CLR 05/01 A2999 RMK AO2
KSTF 141435Z AUTO 00000KT 10SM CLR 02/01 A2999 RMK AO2
KSTF 141415Z AUTO 00000KT 10SM CLR 01/00 A2998 RMK AO2
KSTF 141355Z AUTO 00000KT 10SM CLR 00/00 A2996 RMK AO2
KSTF 141335Z AUTO 00000KT 10SM CLR 00/M01 A2995 RMK AO2
KSTF 141315Z AUTO 00000KT 10SM CLR 00/M01 A2995 RMK AO2
KSTF 141255Z AUTO 00000KT 10SM CLR 00/M01 A2995 RMK AO2
KSTF 141235Z AUTO 00000KT 10SM CLR 00/M01 A2994 RMK AO2
KSTF 141215Z AUTO 00000KT 10SM CLR 00/M01 A2994 RMK AO2
KSTF 141155Z AUTO 00000KT 10SM CLR 01/M01 A2993 RMK AO2
KSTF 141135Z AUTO 00000KT 10SM CLR 01/M01 A2992 RMK AO2
KSTF 141115Z AUTO 00000KT 10SM CLR 01/M01 A2992 RMK AO2
KSTF 141055Z AUTO 00000KT 10SM CLR 02/M01 A2992 RMK AO2
KSTF 141035Z AUTO 00000KT 10SM CLR 02/M01 A2991 RMK AO2
KSTF 141015Z AUTO 00000KT 10SM CLR 03/M01 A2991 RMK AO2
KSTF 140955Z AUTO 00000KT 10SM CLR 03/M01 A2992 RMK AO2
KSTF 140935Z AUTO 23003KT 10SM CLR 05/M01 A2992 RMK AO2
KSTF 140915Z AUTO 24003KT 10SM CLR 05/M01 A2992 RMK AO2
KSTF 140855Z AUTO 25003KT 10SM CLR 05/M01 A2992 RMK AO2
KSTF 140835Z AUTO 00000KT 10SM CLR 06/M01 A2992 RMK AO2
KSTF 140815Z AUTO 23004KT 10SM CLR 06/M01 A2992 RMK AO2
KSTF 140755Z AUTO 23004KT 10SM CLR 06/M01 A2992 RMK AO2
KSTF 140735Z AUTO 24004KT 10SM CLR 06/M01 A2991 RMK AO2
KSTF 140715Z AUTO 23005KT 10SM CLR 07/M01 A2992 RMK AO2
KSTF 140655Z AUTO 23004KT 10SM CLR 07/M02 A2991 RMK AO2
KSTF 140635Z AUTO 24004KT 10SM CLR 07/M02 A2992 RMK AO2
KSTF 140615Z AUTO 24004KT 10SM CLR 07/M02 A2992 RMK AO2
KSTF 140555Z AUTO 23006KT 10SM CLR 07/M02 A2992 RMK AO2
KSTF 140535Z AUTO 23006KT 10SM CLR 07/M02 A2992 RMK AO2
KSTF 140515Z AUTO 23006KT 10SM CLR 07/M02 A2992 RMK AO2
KSTF 140455Z AUTO 23005KT 10SM CLR 07/M02 A2991 RMK AO2
KSTF 140435Z AUTO 22004KT 10SM CLR 07/M02 A2991 RMK AO2
KSTF 140415Z AUTO 23004KT 10SM CLR 07/M02 A2991 RMK AO2
KSTF 140355Z AUTO 23004KT 10SM CLR 07/M02 A2990 RMK AO2
KSTF 140335Z AUTO 22004KT 10SM CLR 07/M02 A2990 RMK AO2
KSTF 140315Z AUTO 22003KT 10SM CLR 07/M02 A2990 RMK AO2
KSTF 140255Z AUTO 00000KT 10SM CLR 07/M02 A2990 RMK AO2
KSTF 140235Z AUTO 22003KT 10SM CLR 07/M02 A2990 RMK AO2
KSTF 140215Z AUTO 00000KT 10SM CLR 07/M03 A2989 RMK AO2
KSTF 140155Z AUTO 21003KT 10SM CLR 08/M03 A2989 RMK AO2
KSTF 140135Z AUTO 21004KT 10SM CLR 07/M03 A2989 RMK AO2
KSTF 140115Z AUTO 21003KT 10SM CLR 09/M03 A2989 RMK AO2
KSTF 140055Z AUTO 22004KT 10SM CLR 10/M03 A2989 RMK AO2
KSTF 140035Z AUTO 21006KT 10SM CLR 10/M04 A2989 RMK AO2
KSTF 140015Z AUTO 20006KT 10SM CLR 10/M04 A2988 RMK AO2
KSTF 132355Z AUTO 21005KT 10SM CLR 11/M05 A2988 RMK AO2
KSTF 132335Z AUTO 20009KT 10SM CLR 11/M05 A2988 RMK AO2
KSTF 132315Z AUTO 20006KT 10SM CLR 11/M05 A2989 RMK AO2
KSTF 132255Z AUTO 22006KT 10SM CLR 12/M05 A2989 RMK AO2
KSTF 132235Z AUTO 21012G16KT 10SM CLR 13/M05 A2990 RMK AO2
KSTF 132215Z AUTO 21008KT 10SM CLR 14/M05 A2991 RMK AO2
KSTF 132155Z AUTO 21007KT 10SM CLR 15/M05 A2990 RMK AO2
KSTF 132135Z AUTO 21011G14KT 10SM CLR 15/M05 A2991 RMK AO2
KSTF 132115Z AUTO 20010KT 10SM CLR 15/M05 A2992 RMK AO2
KSTF 132055Z AUTO 21010KT 10SM CLR 14/M06 A2993 RMK AO2
KSTF 132035Z AUTO 22008G15KT 10SM CLR 14/M05 A2995 RMK AO2